KPPQ

Pittsfield Penstone Municipal Airport

Pittsfield, Illinois, USA
METAR KPPQ 191035Z AUTO 03005KT 10SM SCT004 BKN050 BKN065 21/21 A2998 RMK AO2 T02100206
Observed Flight Rules
Sep-19 @ 10:35 UTC (28 minutes ago) Visual Flight Rules
Wind Visibility Clouds
30° at 5 knots 10 miles
  • Scattered at 400' AGL
  • Broken at 5,000' AGL
  • Broken at 6,500' AGL
Temperatures Readings
Current 21°C / 70°F
Dewpoint 21°C / 70°F
Humidity 100%
Altimeter 29.98" Hg
Pressure 1015 hPa
Elevation 216
METAR KPPQ 191035Z AUTO 03005KT 10SM SCT004 BKN050 BKN065 21/21 A2998 RMK AO2 T02100206
Observed Flight Rules
Sep-19 @ 10:35 UTC
(28 minutes ago)
VFR
Wind Visibility
30° at 5 knots 10 miles
Clouds
  • Scattered at 400' AGL
  • Broken at 5,000' AGL
  • Broken at 6,500' AGL
Temperature Dewpoint
21°C / 70°F 21°C / 70°F
Humidity Altimeter Pressure
100% 29.98" Hg 1015 hPa